createdAt,value
2022-12-14T00:00:06.577Z,23.7090
2022-12-14T00:00:17.773Z,23.7250
2022-12-14T00:00:29.015Z,23.7350
2022-12-14T00:00:40.247Z,23.7250
2022-12-14T00:00:51.411Z,23.7090
2022-12-14T00:01:02.567Z,23.7090
2022-12-14T00:01:13.778Z,23.7150
2022-12-14T00:01:24.991Z,23.7300
2022-12-14T00:01:36.175Z,23.7090
2022-12-14T00:01:48.925Z,23.6890
2022-12-14T00:02:00.895Z,23.7700
2022-12-14T00:02:12.040Z,23.7570
2022-12-14T00:02:23.253Z,23.7570
2022-12-14T00:02:34.425Z,23.7500
2022-12-14T00:02:45.791Z,23.7290
2022-12-14T00:02:57.026Z,23.7390
2022-12-14T00:03:08.474Z,23.7130
2022-12-14T00:03:19.731Z,23.6870
2022-12-14T00:03:31.131Z,23.7020
2022-12-14T00:03:42.288Z,23.6970
2022-12-14T00:03:53.544Z,23.6810
2022-12-14T00:04:04.663Z,23.6970
2022-12-14T00:04:15.858Z,23.7130
2022-12-14T00:04:27.054Z,23.7130
2022-12-14T00:04:38.277Z,23.7200
2022-12-14T00:04:49.486Z,23.7150
2022-12-14T00:05:00.697Z,23.7400
2022-12-14T00:05:11.858Z,23.7510
2022-12-14T00:05:23.069Z,23.7650
2022-12-14T00:05:34.176Z,23.7650
2022-12-14T00:05:45.268Z,23.7660
2022-12-14T00:05:56.334Z,23.7780
2022-12-14T00:06:07.537Z,23.7930
2022-12-14T00:06:18.727Z,23.8030
2022-12-14T00:06:29.939Z,23.7830
2022-12-14T00:06:41.149Z,23.7930
2022-12-14T00:06:52.335Z,23.7830
2022-12-14T00:07:03.568Z,23.7610
2022-12-14T00:07:14.744Z,23.7610
2022-12-14T00:07:25.818Z,23.7980
2022-12-14T00:07:36.873Z,23.8140
2022-12-14T00:07:49.090Z,23.8290
2022-12-14T00:08:00.575Z,23.8290
2022-12-14T00:08:11.699Z,23.8140
2022-12-14T00:08:22.787Z,23.7880
2022-12-14T00:08:38.309Z,23.7830
2022-12-14T00:08:50.869Z,23.8770
2022-12-14T00:09:01.932Z,23.8800
2022-12-14T00:09:13.138Z,23.8590
2022-12-14T00:09:24.208Z,23.8450
2022-12-14T00:09:35.274Z,23.8400
2022-12-14T00:09:46.407Z,23.8290
2022-12-14T00:09:57.615Z,23.8290
2022-12-14T00:10:08.807Z,23.8340
2022-12-14T00:10:20.019Z,23.8240
2022-12-14T00:10:31.094Z,23.8290
2022-12-14T00:10:42.159Z,23.8500
2022-12-14T00:10:53.295Z,23.8550
2022-12-14T00:11:04.529Z,23.8650
2022-12-14T00:11:15.695Z,23.8820
2022-12-14T00:11:26.897Z,23.8770
2022-12-14T00:11:38.112Z,23.8770
2022-12-14T00:11:49.298Z,23.8720
2022-12-14T00:12:00.489Z,23.8650
2022-12-14T00:12:11.746Z,23.8770
2022-12-14T00:12:22.894Z,23.8870
2022-12-14T00:12:33.967Z,23.8920
2022-12-14T00:12:45.088Z,23.9030
2022-12-14T00:12:56.428Z,23.8970
2022-12-14T00:13:07.515Z,23.8940
2022-12-14T00:13:18.576Z,23.8920
2022-12-14T00:13:29.677Z,23.8880
2022-12-14T00:13:40.728Z,23.9040
2022-12-14T00:13:51.857Z,23.8990
2022-12-14T00:14:03.058Z,23.8940
2022-12-14T00:14:14.261Z,23.9140
2022-12-14T00:14:25.469Z,23.9250
2022-12-14T00:14:36.565Z,23.9300
2022-12-14T00:14:47.626Z,23.9250
2022-12-14T00:14:58.748Z,23.9090
2022-12-14T00:15:09.938Z,23.9410
2022-12-14T00:15:21.128Z,23.9620
2022-12-14T00:15:32.220Z,23.9720
2022-12-14T00:15:43.289Z,23.9600
2022-12-14T00:15:54.369Z,23.9620
2022-12-14T00:16:05.433Z,23.9570
2022-12-14T00:16:16.554Z,23.9620
2022-12-14T00:16:27.696Z,23.9620
2022-12-14T00:16:38.768Z,23.9830
2022-12-14T00:16:49.854Z,23.9780
2022-12-14T00:17:00.929Z,23.9930
2022-12-14T00:17:12.298Z,23.9930
2022-12-14T00:17:23.377Z,24.0030
2022-12-14T00:17:34.568Z,24.0190
2022-12-14T00:17:45.789Z,24.0300
2022-12-14T00:17:56.887Z,24.0300
2022-12-14T00:18:07.945Z,24.0240
2022-12-14T00:18:22.452Z,24.0240
2022-12-14T00:18:33.834Z,24.1130
2022-12-14T00:18:44.967Z,24.0860
2022-12-14T00:18:56.189Z,24.0540
2022-12-14T00:19:07.388Z,24.0410
2022-12-14T00:19:18.588Z,24.0410
2022-12-14T00:19:29.671Z,24.0300
2022-12-14T00:19:40.758Z,24.0460
2022-12-14T00:19:51.858Z,24.0410
2022-12-14T00:20:03.065Z,24.0350
2022-12-14T00:20:14.255Z,24.0240
2022-12-14T00:20:25.484Z,24.0460
2022-12-14T00:20:36.517Z,24.0240
2022-12-14T00:20:47.583Z,24.0240
2022-12-14T00:20:58.730Z,24.0300
2022-12-14T00:21:09.938Z,24.0350
2022-12-14T00:21:21.128Z,24.0560
2022-12-14T00:21:32.339Z,24.0610
2022-12-14T00:21:43.532Z,24.0350
2022-12-14T00:21:54.739Z,24.0460
2022-12-14T00:22:05.935Z,24.0770
2022-12-14T00:22:17.177Z,24.0820
2022-12-14T00:22:28.328Z,24.0720
2022-12-14T00:22:39.407Z,24.0610
2022-12-14T00:22:50.517Z,24.0560
2022-12-14T00:23:01.628Z,24.0510
2022-12-14T00:23:12.827Z,24.0560
2022-12-14T00:23:24.029Z,24.0670
2022-12-14T00:23:38.878Z,24.0720
2022-12-14T00:23:50.620Z,24.1500
2022-12-14T00:24:01.789Z,24.1220
2022-12-14T00:24:13.010Z,24.0980
2022-12-14T00:24:24.096Z,24.0980
2022-12-14T00:24:35.164Z,24.0870
2022-12-14T00:24:46.269Z,24.0770
2022-12-14T00:24:57.344Z,24.0670
2022-12-14T00:25:08.404Z,24.0820
2022-12-14T00:25:19.545Z,24.0770
2022-12-14T00:25:30.752Z,24.0870
2022-12-14T00:25:41.944Z,24.0930
2022-12-14T00:25:53.149Z,24.1080
2022-12-14T00:26:04.214Z,24.1250
2022-12-14T00:26:15.295Z,24.1180
2022-12-14T00:26:26.423Z,24.1250
2022-12-14T00:26:37.635Z,24.1180
2022-12-14T00:26:48.841Z,24.1300
2022-12-14T00:27:00.030Z,24.1500
2022-12-14T00:27:11.228Z,24.1500
2022-12-14T00:27:22.477Z,24.1450
2022-12-14T00:27:33.669Z,24.1560
2022-12-14T00:27:44.829Z,24.1400
2022-12-14T00:27:56.026Z,24.1450
2022-12-14T00:28:07.065Z,24.1400
2022-12-14T00:28:18.135Z,24.1400
2022-12-14T00:28:29.657Z,24.1250
2022-12-14T00:28:40.843Z,24.1450
2022-12-14T00:28:52.026Z,24.1500
2022-12-14T00:29:03.107Z,24.1400
2022-12-14T00:29:14.175Z,24.1450
2022-12-14T00:29:25.315Z,24.1560
2022-12-14T00:29:36.505Z,24.1500
2022-12-14T00:29:47.705Z,24.1500
2022-12-14T00:29:58.918Z,24.1450
2022-12-14T00:30:09.985Z,24.1710
2022-12-14T00:30:21.043Z,24.1610
2022-12-14T00:30:32.094Z,24.1820
2022-12-14T00:30:43.192Z,24.2080
2022-12-14T00:30:58.197Z,24.2130
2022-12-14T00:31:09.706Z,24.2970
2022-12-14T00:31:20.835Z,24.2700
2022-12-14T00:31:32.089Z,24.2590
2022-12-14T00:31:43.304Z,24.2660
2022-12-14T00:32:00.191Z,24.3370
2022-12-14T00:32:11.398Z,24.3110
2022-12-14T00:32:22.638Z,24.2800
2022-12-14T00:32:33.700Z,24.2750
2022-12-14T00:32:44.797Z,24.2600
2022-12-14T00:32:55.864Z,24.2450
2022-12-14T00:33:07.064Z,24.2240
2022-12-14T00:33:18.277Z,24.2190
2022-12-14T00:33:29.467Z,24.2130
2022-12-14T00:33:40.548Z,24.2190
2022-12-14T00:33:51.629Z,24.2190
2022-12-14T00:34:02.743Z,24.2130
2022-12-14T00:34:13.957Z,24.2080
2022-12-14T00:34:25.039Z,24.2020
2022-12-14T00:34:36.137Z,24.2130
2022-12-14T00:34:47.207Z,24.2340
2022-12-14T00:34:58.423Z,24.2130
2022-12-14T00:35:09.624Z,24.2190
2022-12-14T00:35:20.830Z,24.2190
2022-12-14T00:35:32.024Z,24.2240
2022-12-14T00:35:43.227Z,24.2290
2022-12-14T00:35:54.429Z,24.2340
2022-12-14T00:36:05.637Z,24.2450
2022-12-14T00:36:16.837Z,24.2450
2022-12-14T00:36:28.028Z,24.2500
2022-12-14T00:36:39.218Z,24.2340
2022-12-14T00:36:50.337Z,24.2400
2022-12-14T00:37:01.415Z,24.2290
2022-12-14T00:37:12.515Z,24.2450
2022-12-14T00:37:23.794Z,24.2240
2022-12-14T00:37:34.903Z,24.2240
2022-12-14T00:37:48.841Z,24.2290
2022-12-14T00:38:00.224Z,24.2910
2022-12-14T00:38:11.377Z,24.2800
2022-12-14T00:38:22.586Z,24.2760
2022-12-14T00:38:33.670Z,24.2500
2022-12-14T00:38:44.797Z,24.2450
2022-12-14T00:38:55.898Z,24.2600
2022-12-14T00:39:07.077Z,24.2600
2022-12-14T00:39:18.265Z,24.2500
2022-12-14T00:39:29.466Z,24.2450
2022-12-14T00:39:40.574Z,24.2660
2022-12-14T00:39:51.646Z,24.2660
2022-12-14T00:40:02.740Z,24.2710
2022-12-14T00:40:13.948Z,24.2500
2022-12-14T00:40:25.007Z,24.2600
2022-12-14T00:40:36.089Z,24.2600
2022-12-14T00:40:47.223Z,24.3120
2022-12-14T00:40:58.429Z,24.3190
2022-12-14T00:41:09.619Z,24.3240
2022-12-14T00:41:20.827Z,24.3290
2022-12-14T00:41:31.887Z,24.3190
2022-12-14T00:41:42.968Z,24.2970
2022-12-14T00:41:54.121Z,24.2860
2022-12-14T00:42:05.314Z,24.2810
2022-12-14T00:42:16.497Z,24.2860
2022-12-14T00:42:27.746Z,24.2910
2022-12-14T00:42:38.900Z,24.3020
2022-12-14T00:42:50.114Z,24.3020
2022-12-14T00:43:01.303Z,24.2910
2022-12-14T00:43:12.505Z,24.2910
2022-12-14T00:43:23.705Z,24.2860
2022-12-14T00:43:34.764Z,24.2860
2022-12-14T00:43:45.826Z,24.2860
2022-12-14T00:44:01.147Z,24.3600
2022-12-14T00:44:12.342Z,24.3370
2022-12-14T00:44:23.548Z,24.3160
2022-12-14T00:44:34.755Z,24.3120
2022-12-14T00:44:45.784Z,24.3120
2022-12-14T00:44:56.837Z,24.3020
2022-12-14T00:45:08.031Z,24.3070
2022-12-14T00:45:19.217Z,24.2910
2022-12-14T00:45:30.426Z,24.2810
2022-12-14T00:45:41.625Z,24.2910
2022-12-14T00:45:52.827Z,24.2760
2022-12-14T00:46:04.082Z,24.2810
2022-12-14T00:46:15.274Z,24.2760
2022-12-14T00:46:26.490Z,24.2760
2022-12-14T00:46:37.640Z,24.2810
2022-12-14T00:46:48.755Z,24.2860
2022-12-14T00:46:59.808Z,24.2910
2022-12-14T00:47:10.904Z,24.3020
2022-12-14T00:47:22.107Z,24.2910
2022-12-14T00:47:39.004Z,24.2910
2022-12-14T00:47:50.269Z,24.3810
2022-12-14T00:48:01.347Z,24.3640
2022-12-14T00:48:12.423Z,24.3540
2022-12-14T00:48:23.598Z,24.3370
2022-12-14T00:48:34.748Z,24.3440
2022-12-14T00:48:45.949Z,24.3440
2022-12-14T00:48:57.148Z,24.3290
2022-12-14T00:49:08.222Z,24.3240
2022-12-14T00:49:19.278Z,24.3390
2022-12-14T00:49:30.428Z,24.3390
2022-12-14T00:49:41.638Z,24.3390
2022-12-14T00:49:52.758Z,24.3440
2022-12-14T00:50:03.861Z,24.3440
2022-12-14T00:50:14.928Z,24.3390
2022-12-14T00:50:26.112Z,24.3340
2022-12-14T00:50:37.305Z,24.3390
2022-12-14T00:50:48.973Z,24.3500
2022-12-14T00:51:00.383Z,24.3860
2022-12-14T00:51:11.454Z,24.3700
2022-12-14T00:51:22.520Z,24.3600
2022-12-14T00:51:33.627Z,24.3500
2022-12-14T00:51:44.819Z,24.3340
2022-12-14T00:51:55.894Z,24.3120
2022-12-14T00:52:06.953Z,24.3240
2022-12-14T00:52:18.014Z,24.3070
2022-12-14T00:52:29.081Z,24.3340
2022-12-14T00:52:40.222Z,24.3240
2022-12-14T00:52:51.379Z,24.3290
2022-12-14T00:53:02.613Z,24.3340
2022-12-14T00:53:13.785Z,24.3390
2022-12-14T00:53:24.824Z,24.3240
2022-12-14T00:53:35.868Z,24.3190
2022-12-14T00:53:47.070Z,24.3120
2022-12-14T00:53:58.276Z,24.3390
2022-12-14T00:54:09.468Z,24.3290
2022-12-14T00:54:20.664Z,24.3290
2022-12-14T00:54:31.868Z,24.3550
2022-12-14T00:54:43.064Z,24.3440
2022-12-14T00:54:54.267Z,24.3500
2022-12-14T00:55:05.457Z,24.3550
2022-12-14T00:55:16.686Z,24.3550
2022-12-14T00:55:27.753Z,24.3390
2022-12-14T00:55:38.815Z,24.3290
2022-12-14T00:55:49.945Z,24.3290
2022-12-14T00:56:01.148Z,24.3340
2022-12-14T00:56:12.348Z,24.3340
2022-12-14T00:56:23.548Z,24.3290
2022-12-14T00:56:34.619Z,24.3440
2022-12-14T00:56:45.688Z,24.3390
2022-12-14T00:56:56.843Z,24.3390
2022-12-14T00:57:08.031Z,24.3390
2022-12-14T00:57:19.230Z,24.3240
2022-12-14T00:57:30.428Z,24.3240
2022-12-14T00:57:41.666Z,24.3240
2022-12-14T00:57:52.830Z,24.3290
2022-12-14T00:58:03.899Z,24.3340
2022-12-14T00:58:14.967Z,24.3240
2022-12-14T00:58:26.532Z,24.3390
2022-12-14T00:58:37.884Z,24.3650
2022-12-14T00:58:48.948Z,24.3600
2022-12-14T00:59:00.026Z,24.3600
2022-12-14T00:59:11.217Z,24.3550
2022-12-14T00:59:27.120Z,24.3440
2022-12-14T00:59:39.384Z,24.4340
2022-12-14T00:59:50.592Z,24.4310
2022-12-14T01:00:01.787Z,24.4160
2022-12-14T01:00:12.989Z,24.3900
2022-12-14T01:00:24.189Z,24.3910
2022-12-14T01:00:35.273Z,24.3810
2022-12-14T01:00:46.348Z,24.3700
2022-12-14T01:00:57.469Z,24.3810
2022-12-14T01:01:08.774Z,24.3810
2022-12-14T01:01:20.091Z,24.3860
2022-12-14T01:01:31.263Z,24.4290
2022-12-14T01:01:42.550Z,24.4390
2022-12-14T01:01:53.922Z,24.4340
2022-12-14T01:02:05.160Z,24.4390
2022-12-14T01:02:16.382Z,24.4230
2022-12-14T01:02:27.573Z,24.4230
2022-12-14T01:02:38.684Z,24.4130
2022-12-14T01:02:49.888Z,24.4070
2022-12-14T01:03:00.986Z,24.4070
2022-12-14T01:03:12.316Z,24.3910
2022-12-14T01:03:23.465Z,24.3860
2022-12-14T01:03:34.814Z,24.3960
2022-12-14T01:03:46.159Z,24.3860
2022-12-14T01:03:57.271Z,24.3550
2022-12-14T01:04:08.641Z,24.3440
2022-12-14T01:04:19.850Z,24.3550
2022-12-14T01:04:30.924Z,24.3810
2022-12-14T01:04:42.119Z,24.3860
2022-12-14T01:04:53.307Z,24.3910
2022-12-14T01:05:04.507Z,24.3810
2022-12-14T01:05:15.704Z,24.3860
2022-12-14T01:05:26.908Z,24.3860
2022-12-14T01:05:38.105Z,24.3960
2022-12-14T01:05:49.645Z,24.3750
2022-12-14T01:06:00.868Z,24.3910
2022-12-14T01:06:12.028Z,24.3910
2022-12-14T01:06:23.229Z,24.3910
2022-12-14T01:06:34.429Z,24.3910
2022-12-14T01:06:45.504Z,24.3960
2022-12-14T01:06:56.596Z,24.4020
2022-12-14T01:07:07.760Z,24.3810
2022-12-14T01:07:18.929Z,24.3910
2022-12-14T01:07:30.030Z,24.3960
2022-12-14T01:07:41.317Z,24.3750
2022-12-14T01:07:52.589Z,24.3810
2022-12-14T01:08:03.710Z,24.3600
2022-12-14T01:08:14.897Z,24.3750
2022-12-14T01:08:26.118Z,24.3750
2022-12-14T01:08:37.304Z,24.3700
2022-12-14T01:08:48.348Z,24.3700
2022-12-14T01:08:59.427Z,24.3600
2022-12-14T01:09:10.589Z,24.3650
2022-12-14T01:09:21.786Z,24.3600
2022-12-14T01:09:32.858Z,24.3700
2022-12-14T01:09:43.944Z,24.3650
2022-12-14T01:09:55.068Z,24.3700
2022-12-14T01:10:06.260Z,24.3550
2022-12-14T01:10:17.468Z,24.3500
2022-12-14T01:10:28.657Z,24.3500
2022-12-14T01:10:39.714Z,24.3390
2022-12-14T01:10:50.757Z,24.3500
2022-12-14T01:11:01.962Z,24.3500
2022-12-14T01:11:13.049Z,24.3500
2022-12-14T01:11:24.135Z,24.3810
2022-12-14T01:11:35.260Z,24.3960
2022-12-14T01:11:46.358Z,24.4020
2022-12-14T01:11:57.438Z,24.3860
2022-12-14T01:12:08.533Z,24.3750
2022-12-14T01:12:19.698Z,24.3650
2022-12-14T01:12:30.912Z,24.3700
2022-12-14T01:12:42.110Z,24.3860
2022-12-14T01:12:53.207Z,24.4020
2022-12-14T01:13:04.277Z,24.3960
2022-12-14T01:13:15.387Z,24.3810
2022-12-14T01:13:26.954Z,24.3860
2022-12-14T01:13:38.470Z,24.3960
2022-12-14T01:13:49.831Z,24.4020
2022-12-14T01:14:01.147Z,24.3960
2022-12-14T01:14:12.346Z,24.4130
2022-12-14T01:14:23.548Z,24.4070
2022-12-14T01:14:34.773Z,24.3960
2022-12-14T01:14:45.814Z,24.3960
2022-12-14T01:14:56.857Z,24.3860
2022-12-14T01:15:08.025Z,24.3860
2022-12-14T01:15:19.227Z,24.4020
2022-12-14T01:15:30.427Z,24.4290
2022-12-14T01:15:41.724Z,24.4290
2022-12-14T01:15:52.835Z,24.4340
2022-12-14T01:16:04.099Z,24.4130
2022-12-14T01:16:15.277Z,24.3910
2022-12-14T01:16:26.489Z,24.3960
2022-12-14T01:16:37.617Z,24.3960
2022-12-14T01:16:48.827Z,24.4020
2022-12-14T01:17:00.025Z,24.3910
2022-12-14T01:17:11.068Z,24.3910
2022-12-14T01:17:22.144Z,24.3750
2022-12-14T01:17:33.347Z,24.3910
2022-12-14T01:17:44.517Z,24.3910
2022-12-14T01:17:55.798Z,24.3860
2022-12-14T01:18:06.888Z,24.3910
2022-12-14T01:18:18.111Z,24.3810
2022-12-14T01:18:29.303Z,24.3750
2022-12-14T01:18:40.526Z,24.3600
2022-12-14T01:18:51.703Z,24.3550
2022-12-14T01:19:02.919Z,24.3650
2022-12-14T01:19:14.108Z,24.3600
2022-12-14T01:19:25.308Z,24.3600
2022-12-14T01:19:36.620Z,24.3750
2022-12-14T01:19:49.338Z,24.3910
2022-12-14T01:20:00.551Z,24.4290
2022-12-14T01:20:11.708Z,24.4070
2022-12-14T01:20:22.948Z,24.3910
2022-12-14T01:20:34.127Z,24.3750
2022-12-14T01:20:45.318Z,24.3700
2022-12-14T01:20:56.537Z,24.3700
2022-12-14T01:21:07.709Z,24.3550
2022-12-14T01:21:18.967Z,24.3500
2022-12-14T01:21:30.118Z,24.3440
2022-12-14T01:21:41.278Z,24.3600
2022-12-14T01:21:52.517Z,24.3650
2022-12-14T01:22:03.599Z,24.3550
2022-12-14T01:22:14.667Z,24.3550
2022-12-14T01:22:25.790Z,24.3600
2022-12-14T01:22:36.847Z,24.3600
2022-12-14T01:22:47.907Z,24.3650
2022-12-14T01:22:59.097Z,24.3600
2022-12-14T01:23:10.267Z,24.3650
2022-12-14T01:23:21.457Z,24.3810
2022-12-14T01:23:32.674Z,24.3910
2022-12-14T01:23:43.749Z,24.3910
2022-12-14T01:23:54.813Z,24.3910
2022-12-14T01:24:05.944Z,24.3860
2022-12-14T01:24:17.148Z,24.3750
2022-12-14T01:24:28.346Z,24.3750
2022-12-14T01:24:39.427Z,24.3750
2022-12-14T01:24:50.508Z,24.3750
2022-12-14T01:25:01.575Z,24.3650
2022-12-14T01:25:12.628Z,24.3650
2022-12-14T01:25:23.707Z,24.3650
2022-12-14T01:25:34.903Z,24.3600
2022-12-14T01:25:46.114Z,24.3810
2022-12-14T01:26:00.238Z,24.4600
2022-12-14T01:26:11.307Z,24.4390
2022-12-14T01:26:22.384Z,24.4340
2022-12-14T01:26:33.438Z,24.4020
2022-12-14T01:26:44.508Z,24.4130
2022-12-14T01:26:55.577Z,24.4290
2022-12-14T01:27:06.746Z,24.4290
2022-12-14T01:27:17.971Z,24.4230
2022-12-14T01:27:29.148Z,24.4180
2022-12-14T01:27:40.357Z,24.4180
2022-12-14T01:27:51.576Z,24.4290
2022-12-14T01:28:02.847Z,24.4340
2022-12-14T01:28:13.964Z,24.4230
2022-12-14T01:28:25.147Z,24.4180
2022-12-14T01:28:36.348Z,24.4070
2022-12-14T01:28:47.415Z,24.4230
2022-12-14T01:28:58.481Z,24.4230
2022-12-14T01:29:09.627Z,24.4180
2022-12-14T01:29:20.817Z,24.4070
2022-12-14T01:29:31.935Z,24.4130
2022-12-14T01:29:43.019Z,24.4340
2022-12-14T01:29:54.100Z,24.4290
2022-12-14T01:30:05.305Z,24.4290
2022-12-14T01:30:16.377Z,24.4180
2022-12-14T01:30:27.459Z,24.4130
2022-12-14T01:30:38.585Z,24.4230
2022-12-14T01:30:49.862Z,24.4130
2022-12-14T01:31:00.974Z,24.4020
2022-12-14T01:31:12.237Z,24.4020
2022-12-14T01:31:23.452Z,24.3960
2022-12-14T01:31:34.629Z,24.3960
2022-12-14T01:31:46.742Z,24.4230
2022-12-14T01:31:59.864Z,24.4650
2022-12-14T01:32:11.071Z,24.4380
2022-12-14T01:32:22.258Z,24.4160
2022-12-14T01:32:33.310Z,24.4130
2022-12-14T01:32:44.367Z,24.4070
2022-12-14T01:32:55.548Z,24.3960
2022-12-14T01:33:06.708Z,24.3910
2022-12-14T01:33:17.947Z,24.4070
2022-12-14T01:33:29.696Z,24.3960
2022-12-14T01:33:41.032Z,24.4180
2022-12-14T01:33:52.178Z,24.4020
2022-12-14T01:34:03.386Z,24.3960
2022-12-14T01:34:14.448Z,24.3910
2022-12-14T01:34:25.537Z,24.3750
2022-12-14T01:34:36.583Z,24.3910
2022-12-14T01:34:47.653Z,24.3910
2022-12-14T01:34:58.738Z,24.4020
2022-12-14T01:35:09.795Z,24.3960
2022-12-14T01:35:20.858Z,24.4020
2022-12-14T01:35:32.028Z,24.4020
2022-12-14T01:35:43.089Z,24.3860
2022-12-14T01:35:54.138Z,24.4070
2022-12-14T01:36:05.297Z,24.4230
2022-12-14T01:36:16.507Z,24.4290
2022-12-14T01:36:27.720Z,24.4290
2022-12-14T01:36:38.937Z,24.4230
2022-12-14T01:36:50.048Z,24.4290
2022-12-14T01:37:01.327Z,24.4290
2022-12-14T01:37:12.549Z,24.4550
2022-12-14T01:37:23.733Z,24.4340
2022-12-14T01:37:34.917Z,24.4340
2022-12-14T01:37:46.145Z,24.4340
2022-12-14T01:38:00.547Z,24.5010
2022-12-14T01:38:11.746Z,24.4640
2022-12-14T01:38:22.903Z,24.4390
2022-12-14T01:38:34.109Z,24.4340
2022-12-14T01:38:45.174Z,24.4390
2022-12-14T01:38:56.237Z,24.4290
2022-12-14T01:39:07.383Z,24.4440
2022-12-14T01:39:18.429Z,24.4340
2022-12-14T01:39:29.484Z,24.4230
2022-12-14T01:39:40.674Z,24.4290
2022-12-14T01:39:51.864Z,24.4340
2022-12-14T01:40:03.071Z,24.4390
2022-12-14T01:40:14.138Z,24.4130
2022-12-14T01:40:25.185Z,24.4290
2022-12-14T01:40:36.343Z,24.4440
2022-12-14T01:40:47.545Z,24.4550
2022-12-14T01:40:58.739Z,24.4490
2022-12-14T01:41:09.944Z,24.4490
2022-12-14T01:41:21.144Z,24.4490
2022-12-14T01:41:32.186Z,24.4390
2022-12-14T01:41:43.277Z,24.4230
2022-12-14T01:41:54.440Z,24.4230
2022-12-14T01:42:05.628Z,24.4180
2022-12-14T01:42:16.828Z,24.4180
2022-12-14T01:42:28.062Z,24.4230
2022-12-14T01:42:39.228Z,24.4230
2022-12-14T01:42:50.424Z,24.4070
2022-12-14T01:43:01.638Z,24.4070
2022-12-14T01:43:12.867Z,24.4180
2022-12-14T01:43:24.519Z,24.4020
2022-12-14T01:43:35.907Z,24.4130
2022-12-14T01:43:47.074Z,24.4130
2022-12-14T01:43:59.968Z,24.4390
2022-12-14T01:44:11.063Z,24.4490
2022-12-14T01:44:22.268Z,24.4390
2022-12-14T01:44:33.489Z,24.4230
2022-12-14T01:44:44.699Z,24.4230
2022-12-14T01:44:55.917Z,24.4070
2022-12-14T01:45:07.017Z,24.4180
2022-12-14T01:45:18.273Z,24.4070
2022-12-14T01:45:29.465Z,24.3960
2022-12-14T01:45:40.667Z,24.3910
2022-12-14T01:45:51.870Z,24.3860
2022-12-14T01:46:03.203Z,24.3960
2022-12-14T01:46:14.350Z,24.4020
2022-12-14T01:46:25.507Z,24.3910
2022-12-14T01:46:36.705Z,24.3960
2022-12-14T01:46:47.922Z,24.4130
2022-12-14T01:46:59.064Z,24.4230
2022-12-14T01:47:12.807Z,24.4230
2022-12-14T01:47:24.376Z,24.4800
2022-12-14T01:47:35.429Z,24.4740
2022-12-14T01:47:46.508Z,24.4800
2022-12-14T01:47:57.688Z,24.4700
2022-12-14T01:48:08.838Z,24.4650
2022-12-14T01:48:20.017Z,24.4490
2022-12-14T01:48:31.228Z,24.4440
2022-12-14T01:48:42.333Z,24.4340
2022-12-14T01:48:53.398Z,24.4340
2022-12-14T01:49:04.520Z,24.4550
2022-12-14T01:49:15.733Z,24.4700
2022-12-14T01:49:26.918Z,24.4550
2022-12-14T01:49:38.109Z,24.4550
2022-12-14T01:49:49.317Z,24.4550
2022-12-14T01:50:00.525Z,24.4650
2022-12-14T01:50:11.726Z,24.4600
2022-12-14T01:50:22.904Z,24.4650
2022-12-14T01:50:34.116Z,24.4700
2022-12-14T01:50:45.207Z,24.4910
2022-12-14T01:50:56.319Z,24.4960
2022-12-14T01:51:07.427Z,24.4960
2022-12-14T01:51:18.606Z,24.4750
2022-12-14T01:51:29.820Z,24.4650
2022-12-14T01:51:41.016Z,24.4340
2022-12-14T01:51:52.189Z,24.4550
2022-12-14T01:52:03.389Z,24.4490
2022-12-14T01:52:14.585Z,24.4490
2022-12-14T01:52:25.787Z,24.4440
2022-12-14T01:52:36.983Z,24.4440
2022-12-14T01:52:48.030Z,24.4340
2022-12-14T01:52:59.095Z,24.4230
2022-12-14T01:53:10.267Z,24.4130
2022-12-14T01:53:21.494Z,24.4130
2022-12-14T01:53:32.677Z,24.4130
2022-12-14T01:53:43.858Z,24.4180
2022-12-14T01:53:54.947Z,24.4230
2022-12-14T01:54:06.024Z,24.4340
2022-12-14T01:54:17.144Z,24.4340
2022-12-14T01:54:28.351Z,24.4230
2022-12-14T01:54:39.549Z,24.4290
2022-12-14T01:54:50.745Z,24.4230
2022-12-14T01:55:01.949Z,24.4130
2022-12-14T01:55:13.147Z,24.4020
2022-12-14T01:55:24.345Z,24.3960
2022-12-14T01:55:35.414Z,24.3960
2022-12-14T01:55:49.095Z,24.3910
2022-12-14T01:56:00.558Z,24.4490
2022-12-14T01:56:11.737Z,24.4210
2022-12-14T01:56:22.929Z,24.4060
2022-12-14T01:56:34.107Z,24.4180
2022-12-14T01:56:45.308Z,24.4130
2022-12-14T01:56:56.538Z,24.4290
2022-12-14T01:57:07.608Z,24.4340
2022-12-14T01:57:18.698Z,24.4230
2022-12-14T01:57:29.770Z,24.4130
2022-12-14T01:57:41.013Z,24.3910
2022-12-14T01:57:52.177Z,24.3910
2022-12-14T01:58:03.384Z,24.4020
2022-12-14T01:58:14.584Z,24.3960
2022-12-14T01:58:25.815Z,24.4020
2022-12-14T01:58:36.985Z,24.4020
2022-12-14T01:58:48.187Z,24.3910
2022-12-14T01:58:59.385Z,24.4180
2022-12-14T01:59:10.428Z,24.3960
2022-12-14T01:59:21.516Z,24.4020
2022-12-14T01:59:32.577Z,24.3960
2022-12-14T01:59:43.649Z,24.4020
2022-12-14T01:59:54.744Z,24.4070
2022-12-14T02:00:07.562Z,24.4070
2022-12-14T02:00:19.105Z,24.4340
2022-12-14T02:00:30.257Z,24.4230
2022-12-14T02:00:41.508Z,24.4290
2022-12-14T02:00:52.687Z,24.4490
2022-12-14T02:01:03.829Z,24.4650
2022-12-14T02:01:15.001Z,24.4550
2022-12-14T02:01:26.274Z,24.4600
2022-12-14T02:01:37.728Z,24.4650
2022-12-14T02:01:49.145Z,24.4700
2022-12-14T02:02:00.494Z,24.4550
2022-12-14T02:02:11.781Z,24.4490
2022-12-14T02:02:23.099Z,24.4440
2022-12-14T02:02:34.623Z,24.4700
2022-12-14T02:02:46.180Z,24.4750
2022-12-14T02:02:57.620Z,24.4700
2022-12-14T02:03:08.788Z,24.4700
2022-12-14T02:03:19.944Z,24.4750
2022-12-14T02:03:31.761Z,24.4700
2022-12-14T02:03:43.351Z,24.5080
2022-12-14T02:03:54.421Z,24.5050
2022-12-14T02:04:05.626Z,24.4800
2022-12-14T02:04:16.866Z,24.4700
2022-12-14T02:04:28.024Z,24.4490
2022-12-14T02:04:39.229Z,24.4490
2022-12-14T02:04:50.425Z,24.4490
2022-12-14T02:05:01.627Z,24.4340
2022-12-14T02:05:12.827Z,24.4340
2022-12-14T02:05:24.029Z,24.4440
2022-12-14T02:05:35.218Z,24.4490
2022-12-14T02:05:46.428Z,24.4480
2022-12-14T02:05:57.508Z,24.4530
2022-12-14T02:06:08.574Z,24.4390
2022-12-14T02:06:19.625Z,24.4340
2022-12-14T02:06:30.717Z,24.4440
2022-12-14T02:06:41.838Z,24.4340
2022-12-14T02:06:57.850Z,24.4390
2022-12-14T02:07:09.944Z,24.5310
2022-12-14T02:07:20.987Z,24.4790
2022-12-14T02:07:32.057Z,24.4580
2022-12-14T02:07:43.228Z,24.4380
2022-12-14T02:08:00.176Z,24.5210
2022-12-14T02:08:11.387Z,24.4940
2022-12-14T02:08:22.444Z,24.4610
2022-12-14T02:08:33.554Z,24.4580
2022-12-14T02:08:44.663Z,24.4480
2022-12-14T02:08:55.867Z,24.4430
2022-12-14T02:09:06.935Z,24.4640
2022-12-14T02:09:18.005Z,24.4840
2022-12-14T02:09:29.147Z,24.4790
2022-12-14T02:09:40.347Z,24.4640
2022-12-14T02:09:51.537Z,24.4740
2022-12-14T02:10:02.766Z,24.4690
2022-12-14T02:10:13.809Z,24.4840
2022-12-14T02:10:24.859Z,24.4950
2022-12-14T02:10:36.025Z,24.4840
2022-12-14T02:10:47.227Z,24.4640
2022-12-14T02:10:58.438Z,24.4580
2022-12-14T02:11:09.633Z,24.4580
2022-12-14T02:11:20.687Z,24.4480
2022-12-14T02:11:31.758Z,24.4380
2022-12-14T02:11:42.898Z,24.4380
2022-12-14T02:11:54.108Z,24.4430
2022-12-14T02:12:05.306Z,24.4530
2022-12-14T02:12:16.347Z,24.4790
2022-12-14T02:12:27.429Z,24.4840
2022-12-14T02:12:38.585Z,24.4790
2022-12-14T02:12:49.804Z,24.4690
2022-12-14T02:13:00.990Z,24.4580
2022-12-14T02:13:12.187Z,24.4480
2022-12-14T02:13:23.304Z,24.4390
2022-12-14T02:13:34.647Z,24.4340
2022-12-14T02:13:45.827Z,24.4340
2022-12-14T02:14:00.234Z,24.5100
2022-12-14T02:14:11.348Z,24.5000
2022-12-14T02:14:22.585Z,24.5050
2022-12-14T02:14:33.786Z,24.4840
2022-12-14T02:14:44.864Z,24.4900
2022-12-14T02:14:55.928Z,24.4900
2022-12-14T02:15:07.065Z,24.4740
2022-12-14T02:15:18.177Z,24.4530
2022-12-14T02:15:29.237Z,24.4530
2022-12-14T02:15:40.347Z,24.4640
2022-12-14T02:15:51.507Z,24.4740
2022-12-14T02:16:02.629Z,24.4690
2022-12-14T02:16:13.760Z,24.4480
2022-12-14T02:16:24.939Z,24.4530